powered by Meteolive.it
Dati meteo   Attuali  Passati Ogni 3 ore 7 Giorni 15 Giorni Avvisi Meteo Mappe meteo
Palermo / Punta Raisi, Italy
Alba: 4:57 AM UTC1
Tramonto: 7:28 PM UTC1
 Lat: 38.17N, Lon: 13.08E
ICAO Usato: LICJ
Condizioni Meteo Attuali Aggiornate: 12.07.2018 alle 16:20 LT
Quasi Sereno
Quasi Sereno
Sereno
Quasi Sereno
Temp: 30°C
Umidita': 52%
Direz/Vel. Vento: NE 12 KTS raffiche
Pressione: 1016 hPa
Punto di rugiada: 19°C
Temperatura percepita: 32°C
Visibilitą: >10 KM (ottima)
Temperatura percepita in
presenza di vento (Wind Chill)
:
N/D
T. max (ultime 24 ore): 29°C
T. min (ultime 24 ore): 22°C


METAR ORIGINALE
LICJ 121220Z 05012KT CAVOK 30/19 Q1016